Time;durP1;ratioP1;P1;durP2;ratioP2;P2;SDS_P1;SDS_P2;PMS_P1;PMS_P2;Temp;Humidity;BMP_temperature;BMP_pressure;BME280_temperature;BME280_humidity;BME280_pressure;Samples;Min_cycle;Max_cycle;Signal;HPM_P1;HPM_P2
2022/07/08 00:00:15;;;;;;;1.95;1.75;;;17.50;99.90;;;;;;5095244;28;20036;-69
2022/07/08 00:02:40;;;;;;;3.35;1.77;;;17.50;99.90;;;;;;5094512;28;20032;-69
2022/07/08 00:05:07;;;;;;;2.72;2.20;;;17.50;99.90;;;;;;5095622;28;20024;-69
2022/07/08 00:07:33;;;;;;;2.33;2.10;;;17.50;99.90;;;;;;5095129;28;20020;-67
2022/07/08 00:09:58;;;;;;;3.00;2.05;;;17.50;99.90;;;;;;5095339;28;20024;-68
2022/07/08 00:12:24;;;;;;;5.07;2.85;;;17.60;99.90;;;;;;5095465;28;20028;-68
2022/07/08 00:14:50;;;;;;;3.67;2.30;;;17.60;99.90;;;;;;5094522;28;20479;-68
2022/07/08 00:17:15;;;;;;;3.40;2.10;;;17.60;99.90;;;;;;5095333;28;20028;-68
2022/07/08 00:19:41;;;;;;;3.20;2.40;;;17.60;99.90;;;;;;5095067;28;20464;-68
2022/07/08 00:22:06;;;;;;;2.80;2.00;;;17.60;99.90;;;;;;5095159;28;20031;-68
2022/07/08 00:24:32;;;;;;;2.42;2.22;;;17.60;99.90;;;;;;5094608;28;20024;-69
2022/07/08 00:26:58;;;;;;;2.53;2.30;;;17.60;99.90;;;;;;5095174;28;20024;-69
2022/07/08 00:29:23;;;;;;;4.10;2.50;;;17.60;99.90;;;;;;5095148;28;20135;-69
2022/07/08 00:31:49;;;;;;;3.40;2.50;;;17.60;99.90;;;;;;5094554;28;20024;-69
2022/07/08 00:34:15;;;;;;;3.85;2.83;;;17.60;99.90;;;;;;5094961;28;20026;-68
2022/07/08 00:36:40;;;;;;;4.55;2.53;;;17.60;99.90;;;;;;5094212;28;20107;-67
2022/07/08 00:39:06;;;;;;;2.92;2.35;;;17.60;99.90;;;;;;5094854;28;20032;-68
2022/07/08 00:41:32;;;;;;;3.40;2.35;;;17.60;99.90;;;;;;5094487;28;20027;-68
2022/07/08 00:43:57;;;;;;;4.82;2.35;;;17.50;99.90;;;;;;5094843;28;20028;-67
2022/07/08 00:46:23;;;;;;;4.97;2.80;;;17.50;99.90;;;;;;5094389;28;20464;-69
2022/07/08 00:48:49;;;;;;;2.90;1.77;;;17.50;99.90;;;;;;5093770;28;20127;-69
2022/07/08 00:51:17;;;;;;;3.67;2.58;;;17.50;99.90;;;;;;5094623;28;20055;-69
2022/07/08 00:53:48;;;;;;;3.88;2.80;;;17.50;99.90;;;;;;5094197;28;20031;-69
2022/07/08 00:56:15;;;;;;;3.40;2.28;;;17.50;99.90;;;;;;5093422;28;20107;-70
2022/07/08 00:58:41;;;;;;;4.40;2.35;;;17.50;99.90;;;;;;5093983;28;20064;-69
2022/07/08 01:01:07;;;;;;;3.33;2.25;;;17.50;99.90;;;;;;5094405;28;20060;-68
2022/07/08 01:03:33;;;;;;;2.72;2.20;;;17.50;99.90;;;;;;5093839;28;20032;-68
2022/07/08 01:05:59;;;;;;;4.30;2.42;;;17.50;99.90;;;;;;5094172;28;20030;-68
2022/07/08 01:08:25;;;;;;;3.10;2.00;;;17.50;99.90;;;;;;5094200;28;20379;-69
2022/07/08 01:10:51;;;;;;;2.40;2.20;;;17.50;99.90;;;;;;5093488;28;20598;-68
2022/07/08 01:13:18;;;;;;;3.08;2.17;;;17.50;99.90;;;;;;5093035;28;20028;-68
2022/07/08 01:15:44;;;;;;;2.50;1.85;;;17.50;99.90;;;;;;5093650;28;20032;-67
2022/07/08 01:18:22;;;;;;;2.90;2.22;;;17.50;99.90;;;;;;5093791;28;20040;-68
2022/07/08 01:20:48;;;;;;;2.95;2.25;;;17.50;99.90;;;;;;5093622;28;20110;-68
2022/07/08 01:23:13;;;;;;;5.80;2.47;;;17.60;99.90;;;;;;5093717;28;20062;-68
2022/07/08 01:25:39;;;;;;;4.63;2.38;;;17.60;99.90;;;;;;5093248;28;20063;-68
2022/07/08 01:28:05;;;;;;;2.58;2.35;;;17.60;99.90;;;;;;5093727;28;20097;-68
2022/07/08 01:30:31;;;;;;;2.80;2.10;;;17.60;99.90;;;;;;5093868;28;20028;-69
2022/07/08 01:32:57;;;;;;;3.83;2.38;;;17.60;99.90;;;;;;5093431;28;20028;-68
2022/07/08 01:35:22;;;;;;;2.80;2.33;;;17.50;99.90;;;;;;5093652;28;20106;-69
2022/07/08 01:37:48;;;;;;;3.55;1.90;;;17.50;99.90;;;;;;5093347;28;20187;-67
2022/07/08 01:40:13;;;;;;;4.07;2.50;;;17.50;99.90;;;;;;5093735;28;20508;-69
2022/07/08 01:42:39;;;;;;;3.05;2.13;;;17.50;99.90;;;;;;5093247;28;20028;-68
2022/07/08 01:45:06;;;;;;;5.85;2.65;;;17.50;99.90;;;;;;5093576;28;20059;-68
2022/07/08 01:47:31;;;;;;;1.92;1.73;;;17.50;99.90;;;;;;5093502;28;20028;-68
2022/07/08 01:49:57;;;;;;;3.15;2.25;;;17.50;99.90;;;;;;5092754;28;20032;-68
2022/07/08 01:52:23;;;;;;;3.45;2.30;;;17.50;99.90;;;;;;5093889;28;20476;-68
2022/07/08 01:54:50;;;;;;;3.03;2.25;;;17.40;99.90;;;;;;5091804;28;20028;-68
2022/07/08 01:57:16;;;;;;;5.47;2.60;;;17.50;99.90;;;;;;5093018;28;20035;-68
2022/07/08 01:59:49;;;;;;;2.50;2.20;;;17.50;99.90;;;;;;5092952;28;20028;-69
2022/07/08 02:02:17;;;;;;;2.88;2.20;;;17.50;99.90;;;;;;5093010;28;20028;-69
2022/07/08 02:04:43;;;;;;;2.60;2.05;;;17.50;99.90;;;;;;5092259;28;20047;-69
2022/07/08 02:07:09;;;;;;;4.97;2.42;;;17.40;99.90;;;;;;5092458;28;20416;-69
2022/07/08 02:09:36;;;;;;;3.17;2.40;;;17.40;99.90;;;;;;5092408;28;20056;-69
2022/07/08 02:12:21;;;;;;;2.67;1.98;;;17.40;99.90;;;;;;5092325;28;20027;-69
2022/07/08 02:14:46;;;;;;;5.65;2.85;;;17.40;99.90;;;;;;5087240;28;20016;-69
2022/07/08 02:17:13;;;;;;;3.95;2.10;;;17.40;99.90;;;;;;5092628;28;20456;-69
2022/07/08 02:19:39;;;;;;;2.50;2.15;;;17.40;99.90;;;;;;5091807;28;20024;-69
2022/07/08 02:22:05;;;;;;;2.30;1.95;;;17.40;99.90;;;;;;5089908;28;20097;-69
2022/07/08 02:24:30;;;;;;;14.65;2.60;;;17.40;99.90;;;;;;5092396;28;20050;-69
2022/07/08 02:26:56;;;;;;;2.40;2.20;;;17.40;99.90;;;;;;5092071;28;20020;-70
2022/07/08 02:29:22;;;;;;;2.20;2.00;;;17.40;99.90;;;;;;5091674;28;20055;-69
2022/07/08 02:31:47;;;;;;;2.00;1.67;;;17.40;99.90;;;;;;5097321;28;20037;-69
2022/07/08 02:34:13;;;;;;;2.63;2.25;;;17.40;99.90;;;;;;5103537;28;20047;-69
2022/07/08 02:36:38;;;;;;;2.13;1.73;;;17.40;99.90;;;;;;5100590;28;20032;-69
2022/07/08 02:39:04;;;;;;;2.60;1.98;;;17.40;99.90;;;;;;5093507;28;20207;-69
2022/07/08 02:41:30;;;;;;;1.67;1.58;;;17.40;99.90;;;;;;5092417;28;20024;-69
2022/07/08 02:43:56;;;;;;;2.38;2.00;;;17.40;99.90;;;;;;5089302;28;20310;-69
2022/07/08 02:46:22;;;;;;;1.85;1.70;;;17.40;99.90;;;;;;5092150;28;20032;-69
2022/07/08 02:48:48;;;;;;;1.70;1.60;;;17.40;99.90;;;;;;5092014;28;20074;-69
2022/07/08 02:51:13;;;;;;;4.00;1.40;;;17.40;99.90;;;;;;5092573;28;20028;-69
2022/07/08 02:53:39;;;;;;;1.42;1.33;;;17.30;99.90;;;;;;5091931;28;20051;-68
2022/07/08 02:56:05;;;;;;;2.10;1.90;;;17.40;99.90;;;;;;5092274;28;20024;-68
2022/07/08 02:58:30;;;;;;;3.92;1.70;;;17.30;99.90;;;;;;5092188;28;20036;-69
2022/07/08 03:00:56;;;;;;;2.15;1.67;;;17.40;99.90;;;;;;5091985;28;20543;-70
2022/07/08 03:03:22;;;;;;;1.60;1.50;;;17.30;99.90;;;;;;5092272;28;20027;-68
2022/07/08 03:05:47;;;;;;;2.00;1.58;;;17.30;99.90;;;;;;5091598;28;20103;-68
2022/07/08 03:08:13;;;;;;;3.22;1.48;;;17.30;99.90;;;;;;5092124;28;20033;-69
2022/07/08 03:10:39;;;;;;;1.65;1.55;;;17.30;99.90;;;;;;5091833;28;20024;-68
2022/07/08 03:13:05;;;;;;;3.25;1.45;;;17.30;99.90;;;;;;5092534;28;20440;-67
2022/07/08 03:15:30;;;;;;;1.90;1.60;;;17.30;99.90;;;;;;5092305;28;20040;-68
2022/07/08 03:17:56;;;;;;;1.83;1.60;;;17.30;99.90;;;;;;5091826;28;20132;-68
2022/07/08 03:20:22;;;;;;;1.48;1.38;;;17.30;99.90;;;;;;5091996;28;20077;-68
2022/07/08 03:22:47;;;;;;;2.50;1.73;;;17.30;99.90;;;;;;5091453;28;20032;-68
2022/07/08 03:25:13;;;;;;;1.40;1.30;;;17.40;99.90;;;;;;5092115;28;20357;-68
2022/07/08 03:27:39;;;;;;;4.20;1.35;;;17.40;99.90;;;;;;5090488;28;20024;-68
2022/07/08 03:30:05;;;;;;;1.63;1.45;;;17.40;99.90;;;;;;5092076;28;20039;-68
2022/07/08 03:32:31;;;;;;;1.23;1.13;;;17.40;99.90;;;;;;5091742;28;20020;-69
2022/07/08 03:34:57;;;;;;;2.13;1.63;;;17.40;99.90;;;;;;5091554;28;20027;-68
2022/07/08 03:37:23;;;;;;;1.70;1.33;;;17.40;99.90;;;;;;5094779;28;20079;-68
2022/07/08 03:39:50;;;;;;;1.58;1.20;;;17.40;99.90;;;;;;5094834;28;20089;-68
2022/07/08 03:42:16;;;;;;;1.90;1.40;;;17.40;99.90;;;;;;5095419;28;20028;-69
2022/07/08 03:44:42;;;;;;;1.98;1.50;;;17.40;99.90;;;;;;5094700;28;20039;-68
2022/07/08 03:47:08;;;;;;;1.77;1.48;;;17.50;99.90;;;;;;5095464;28;20035;-69
2022/07/08 03:49:33;;;;;;;1.75;1.60;;;17.50;99.90;;;;;;5095155;28;20036;-69
2022/07/08 03:51:59;;;;;;;1.45;1.30;;;17.50;99.90;;;;;;5094686;28;20379;-69
2022/07/08 03:54:25;;;;;;;1.50;1.35;;;17.50;99.90;;;;;;5095401;28;20028;-69
2022/07/08 03:56:51;;;;;;;1.05;1.00;;;17.50;99.90;;;;;;5094740;28;20039;-68
2022/07/08 03:59:18;;;;;;;1.20;1.10;;;17.60;99.90;;;;;;5095157;28;20036;-69
2022/07/08 04:01:43;;;;;;;1.52;1.42;;;17.60;99.90;;;;;;5095066;28;20363;-69
2022/07/08 04:04:09;;;;;;;1.50;1.40;;;17.60;99.90;;;;;;5095545;28;20034;-68
2022/07/08 04:06:36;;;;;;;2.25;1.50;;;17.70;99.90;;;;;;5094687;28;20032;-68
2022/07/08 04:09:02;;;;;;;1.65;1.02;;;17.70;99.90;;;;;;5094544;28;20032;-69
2022/07/08 04:11:28;;;;;;;1.23;1.10;;;17.70;99.90;;;;;;5094883;28;20028;-69
2022/07/08 04:13:54;;;;;;;1.48;1.30;;;17.70;99.90;;;;;;5095066;28;20080;-68
2022/07/08 04:16:19;;;;;;;1.25;1.15;;;17.80;99.90;;;;;;5094702;28;20032;-69
2022/07/08 04:18:45;;;;;;;1.48;1.20;;;17.80;99.90;;;;;;5094723;28;20031;-68
2022/07/08 04:21:11;;;;;;;2.13;1.60;;;17.80;99.90;;;;;;5094699;28;20028;-68
2022/07/08 04:23:37;;;;;;;2.00;1.15;;;17.90;99.90;;;;;;5094954;28;20067;-68
2022/07/08 04:26:03;;;;;;;1.50;1.02;;;17.90;99.90;;;;;;5094531;28;20119;-68
2022/07/08 04:28:29;;;;;;;1.30;1.20;;;17.90;99.90;;;;;;5094622;28;20450;-69
2022/07/08 04:30:56;;;;;;;1.55;1.45;;;17.90;99.90;;;;;;5094310;28;20031;-69
2022/07/08 04:33:22;;;;;;;1.60;1.50;;;17.90;99.90;;;;;;5094426;28;20032;-68
2022/07/08 04:35:48;;;;;;;0.98;0.88;;;17.90;99.90;;;;;;5094276;28;20031;-69
2022/07/08 04:38:14;;;;;;;1.05;0.90;;;18.00;99.90;;;;;;5094715;28;20035;-69
2022/07/08 04:40:40;;;;;;;0.88;0.88;;;18.00;99.90;;;;;;5094131;28;20036;-69
2022/07/08 04:43:06;;;;;;;1.83;1.25;;;18.00;99.90;;;;;;5093829;28;20073;-69
2022/07/08 04:45:32;;;;;;;1.65;1.30;;;18.00;99.90;;;;;;5094393;28;20028;-68
2022/07/08 04:47:57;;;;;;;1.02;0.93;;;18.00;99.90;;;;;;5093696;28;20028;-68
2022/07/08 04:50:23;;;;;;;1.10;0.80;;;18.00;99.90;;;;;;5094368;28;20028;-69
2022/07/08 04:52:48;;;;;;;0.82;0.75;;;18.00;99.90;;;;;;5093910;28;20054;-69
2022/07/08 04:55:30;;;;;;;1.08;0.80;;;18.00;99.90;;;;;;5094677;28;20028;-69
2022/07/08 04:57:58;;;;;;;0.80;0.80;;;18.00;99.90;;;;;;5094070;28;20027;-68
2022/07/08 05:00:25;;;;;;;0.93;0.93;;;18.00;99.90;;;;;;5094172;28;20052;-69
2022/07/08 05:02:51;;;;;;;1.40;0.98;;;18.00;99.90;;;;;;5093803;28;20447;-69
2022/07/08 05:05:17;;;;;;;1.30;1.20;;;18.00;99.90;;;;;;5094136;28;20056;-69
2022/07/08 05:07:43;;;;;;;0.70;0.65;;;18.00;99.90;;;;;;5093945;28;20427;-70
2022/07/08 05:10:09;;;;;;;0.93;0.77;;;18.00;99.90;;;;;;5093572;28;20028;-69
2022/07/08 05:12:34;;;;;;;4.03;0.73;;;18.00;99.90;;;;;;5093813;28;20041;-69
2022/07/08 05:15:00;;;;;;;0.60;0.60;;;18.10;99.90;;;;;;5093658;28;20028;-68
2022/07/08 05:17:25;;;;;;;0.52;0.52;;;18.10;99.90;;;;;;5094009;28;20461;-68
2022/07/08 05:19:51;;;;;;;0.60;0.60;;;18.10;99.90;;;;;;5093180;28;20056;-69
2022/07/08 05:22:17;;;;;;;0.60;0.60;;;18.10;99.90;;;;;;5093874;28;20020;-69
2022/07/08 05:24:42;;;;;;;0.68;0.68;;;18.00;99.80;;;;;;5093756;28;20028;-69
2022/07/08 05:27:08;;;;;;;0.57;0.57;;;18.00;99.70;;;;;;5093043;28;20494;-69
2022/07/08 05:29:33;;;;;;;0.70;0.60;;;18.00;99.70;;;;;;5093790;28;20036;-69
2022/07/08 05:31:59;;;;;;;0.45;0.38;;;18.00;99.20;;;;;;5093177;28;20070;-68
2022/07/08 05:34:25;;;;;;;0.82;0.50;;;18.00;98.90;;;;;;5093753;28;20031;-69
2022/07/08 05:36:50;;;;;;;0.47;0.47;;;18.10;98.40;;;;;;5092932;28;20032;-69
2022/07/08 05:39:16;;;;;;;0.35;0.35;;;18.00;97.40;;;;;;5093488;28;20053;-68
2022/07/08 05:41:42;;;;;;;1.85;0.40;;;18.00;96.80;;;;;;5093470;28;20062;-69
2022/07/08 05:44:08;;;;;;;0.40;0.40;;;18.00;96.30;;;;;;5093021;28;20028;-69
2022/07/08 05:46:34;;;;;;;0.32;0.32;;;18.00;96.60;;;;;;5092981;28;20028;-69
2022/07/08 05:49:00;;;;;;;0.38;0.38;;;17.90;96.50;;;;;;5092642;28;20039;-69
2022/07/08 05:51:26;;;;;;;0.40;0.40;;;17.90;96.30;;;;;;5093238;28;20089;-68
2022/07/08 05:53:55;;;;;;;0.40;0.40;;;17.90;96.20;;;;;;5092962;28;20021;-68
2022/07/08 05:56:21;;;;;;;0.40;0.40;;;17.90;96.70;;;;;;5092468;28;20042;-69
2022/07/08 05:58:46;;;;;;;0.40;0.40;;;17.80;96.60;;;;;;5092383;28;20439;-69
2022/07/08 06:01:12;;;;;;;0.52;0.50;;;17.70;97.00;;;;;;5092679;28;20023;-69
2022/07/08 06:03:38;;;;;;;0.30;0.30;;;17.70;97.30;;;;;;5092660;28;20039;-69
2022/07/08 06:06:03;;;;;;;0.85;0.40;;;17.60;97.70;;;;;;5092473;28;20376;-69
2022/07/08 06:08:29;;;;;;;0.50;0.50;;;17.60;98.10;;;;;;5092659;28;20032;-69
2022/07/08 06:10:56;;;;;;;0.40;0.40;;;17.60;97.60;;;;;;5092368;28;20384;-70
2022/07/08 06:13:22;;;;;;;0.35;0.35;;;17.70;96.80;;;;;;5092830;28;20464;-69
2022/07/08 06:15:48;;;;;;;2.17;0.60;;;17.70;95.70;;;;;;5092543;28;20039;-69
2022/07/08 06:18:14;;;;;;;1.30;0.63;;;17.70;95.00;;;;;;5091863;28;20024;-68
2022/07/08 06:20:39;;;;;;;0.55;0.50;;;17.60;95.20;;;;;;5092569;28;20549;-68
2022/07/08 06:23:05;;;;;;;0.73;0.73;;;17.60;95.10;;;;;;5091276;28;20445;-69
2022/07/08 06:25:31;;;;;;;0.85;0.80;;;17.50;95.10;;;;;;5092652;28;20032;-68
2022/07/08 06:27:56;;;;;;;1.05;0.50;;;17.60;95.20;;;;;;5091930;28;20066;-68
2022/07/08 06:30:22;;;;;;;0.77;0.63;;;17.60;95.40;;;;;;5092484;28;20487;-69
2022/07/08 06:32:48;;;;;;;0.77;0.77;;;17.70;95.10;;;;;;5092560;28;20067;-68
2022/07/08 06:35:13;;;;;;;1.90;0.80;;;17.70;94.70;;;;;;5091977;28;20035;-68
2022/07/08 06:37:39;;;;;;;0.80;0.80;;;17.70;94.20;;;;;;5092665;28;20071;-68
2022/07/08 06:40:06;;;;;;;1.58;0.60;;;17.60;94.40;;;;;;5092195;28;20032;-69
2022/07/08 06:42:31;;;;;;;0.65;0.55;;;17.60;94.40;;;;;;5092423;28;20067;-70
2022/07/08 06:44:57;;;;;;;1.45;0.90;;;17.60;94.30;;;;;;5092191;28;20070;-69
2022/07/08 06:47:23;;;;;;;0.93;0.82;;;17.60;94.60;;;;;;5092265;28;20020;-69
2022/07/08 06:49:49;;;;;;;1.27;1.00;;;17.60;94.20;;;;;;5092494;28;20392;-69
2022/07/08 06:52:15;;;;;;;2.97;1.00;;;17.50;94.10;;;;;;5091896;28;20030;-69
2022/07/08 06:54:40;;;;;;;0.95;0.57;;;17.50;94.30;;;;;;5092237;28;20115;-69
2022/07/08 06:57:07;;;;;;;1.30;0.90;;;17.50;94.60;;;;;;5091814;28;20028;-69
2022/07/08 06:59:34;;;;;;;1.27;1.10;;;17.40;94.40;;;;;;5092054;28;20468;-69
2022/07/08 07:02:00;;;;;;;1.02;0.80;;;17.40;94.50;;;;;;5091996;28;20032;-69
2022/07/08 07:04:27;;;;;;;1.85;0.90;;;17.40;94.40;;;;;;5091576;28;20027;-69
2022/07/08 07:06:54;;;;;;;6.40;1.17;;;17.30;94.50;;;;;;5091843;28;20461;-70
2022/07/08 07:09:19;;;;;;;3.53;0.88;;;17.40;94.50;;;;;;5091852;28;20453;-69
2022/07/08 07:11:45;;;;;;;1.92;1.23;;;17.40;94.50;;;;;;5093045;28;20032;-68
2022/07/08 07:14:11;;;;;;;1.65;0.80;;;17.30;94.40;;;;;;5100832;28;20058;-69
2022/07/08 07:16:36;;;;;;;1.35;1.10;;;17.30;94.50;;;;;;5102078;28;20434;-70
2022/07/08 07:19:02;;;;;;;2.03;1.00;;;17.30;94.70;;;;;;5098659;28;20055;-69
2022/07/08 07:21:28;;;;;;;2.20;1.30;;;17.30;95.10;;;;;;5097107;27;20028;-69
2022/07/08 07:23:54;;;;;;;1.17;1.08;;;17.40;95.60;;;;;;5096887;28;20077;-70
2022/07/08 07:26:19;;;;;;;2.97;1.35;;;17.40;96.10;;;;;;5103489;28;20464;-68
2022/07/08 07:28:45;;;;;;;2.53;1.40;;;17.50;95.90;;;;;;5105936;28;20124;-69
2022/07/08 07:31:10;;;;;;;1.23;1.13;;;17.70;95.70;;;;;;5106666;28;20027;-69
2022/07/08 07:33:36;;;;;;;3.35;1.48;;;18.00;95.00;;;;;;5105654;28;20024;-70
2022/07/08 07:36:02;;;;;;;1.52;1.20;;;18.50;93.70;;;;;;5109914;28;20060;-69
2022/07/08 07:38:28;;;;;;;1.55;1.23;;;18.40;92.30;;;;;;5114719;28;20028;-69
2022/07/08 07:40:54;;;;;;;1.55;1.45;;;18.50;92.10;;;;;;5098093;28;20372;-70
2022/07/08 07:43:19;;;;;;;2.55;1.27;;;19.00;91.20;;;;;;5093534;28;20456;-70
2022/07/08 07:45:45;;;;;;;2.10;1.02;;;19.10;90.50;;;;;;5095218;28;20024;-69
2022/07/08 07:48:11;;;;;;;1.70;1.20;;;18.80;90.00;;;;;;5094782;28;20043;-69
2022/07/08 07:50:36;;;;;;;2.08;1.52;;;18.70;90.40;;;;;;5094606;28;20024;-70
2022/07/08 07:53:02;;;;;;;2.58;1.40;;;18.60;90.80;;;;;;5095348;28;20057;-69
2022/07/08 07:55:27;;;;;;;3.08;1.50;;;18.50;90.70;;;;;;5095203;28;20430;-69
2022/07/08 07:57:53;;;;;;;1.92;1.33;;;18.40;91.50;;;;;;5095467;28;20028;-69
2022/07/08 08:00:19;;;;;;;3.13;1.60;;;18.40;91.20;;;;;;5094946;28;20031;-68
2022/07/08 08:02:44;;;;;;;5.13;1.38;;;18.60;91.20;;;;;;5095348;28;20508;-69
2022/07/08 08:05:11;;;;;;;6.50;1.35;;;18.70;90.10;;;;;;5094890;28;20053;-69
2022/07/08 08:07:38;;;;;;;1.52;1.38;;;18.90;89.70;;;;;;5094848;28;20024;-69
2022/07/08 08:10:04;;;;;;;2.20;1.38;;;18.90;87.90;;;;;;5094449;28;20051;-70
2022/07/08 08:12:30;;;;;;;1.73;1.20;;;18.90;88.00;;;;;;5094795;28;20020;-70
2022/07/08 08:14:56;;;;;;;3.00;1.33;;;19.40;85.90;;;;;;5094789;28;20521;-70
2022/07/08 08:17:22;;;;;;;2.28;1.23;;;19.40;85.10;;;;;;5094056;28;20047;-71
2022/07/08 08:19:48;;;;;;;2.10;1.10;;;19.30;83.80;;;;;;5094791;28;20107;-69
2022/07/08 08:22:14;;;;;;;3.83;1.42;;;19.10;84.70;;;;;;5094060;28;20132;-68
2022/07/08 08:24:39;;;;;;;1.33;0.98;;;19.20;85.30;;;;;;5094440;28;20177;-69
2022/07/08 08:27:05;;;;;;;1.83;1.50;;;19.30;85.30;;;;;;5094460;28;20028;-68
2022/07/08 08:29:31;;;;;;;2.92;1.33;;;19.30;84.40;;;;;;5094758;28;20484;-69
2022/07/08 08:31:57;;;;;;;1.52;1.20;;;19.30;85.20;;;;;;5094523;28;20384;-69
2022/07/08 08:34:22;;;;;;;2.35;1.13;;;19.20;86.10;;;;;;5093817;28;20027;-69
2022/07/08 08:36:48;;;;;;;1.33;1.10;;;19.20;86.70;;;;;;5093946;28;20039;-70
2022/07/08 08:39:14;;;;;;;2.03;1.30;;;19.00;88.70;;;;;;5093922;28;20054;-69
2022/07/08 08:41:41;;;;;;;1.38;1.17;;;18.80;89.60;;;;;;5093990;28;20030;-69
2022/07/08 08:44:07;;;;;;;1.55;1.27;;;18.50;90.30;;;;;;5093389;28;20028;-68
2022/07/08 08:46:33;;;;;;;3.33;1.10;;;18.50;90.90;;;;;;5093860;28;20099;-69
2022/07/08 08:49:00;;;;;;;1.15;1.00;;;18.50;90.80;;;;;;5093769;28;20064;-68
2022/07/08 08:51:30;;;;;;;2.28;1.30;;;18.40;91.40;;;;;;5093904;28;20357;-69
2022/07/08 08:53:58;;;;;;;1.27;1.08;;;18.40;92.00;;;;;;5091055;28;20062;-68
2022/07/08 08:56:26;;;;;;;1.35;1.15;;;18.30;92.80;;;;;;5093723;28;20115;-69
2022/07/08 08:58:53;;;;;;;1.55;1.20;;;18.30;93.30;;;;;;5093908;28;20468;-68
2022/07/08 09:01:20;;;;;;;3.88;1.73;;;18.30;93.70;;;;;;5093741;28;20028;-69
2022/07/08 09:03:46;;;;;;;1.92;1.42;;;18.20;93.60;;;;;;5093807;28;20532;-69
2022/07/08 09:06:12;;;;;;;1.73;1.40;;;18.10;93.80;;;;;;5093855;28;20073;-69
2022/07/08 09:08:38;;;;;;;1.98;1.60;;;18.10;94.30;;;;;;5094219;28;20040;-68
2022/07/08 09:11:05;;;;;;;1.38;1.27;;;18.10;94.40;;;;;;5093613;28;20047;-68
2022/07/08 09:13:31;;;;;;;3.00;1.73;;;18.10;94.40;;;;;;5094132;28;20035;-68
2022/07/08 09:15:58;;;;;;;2.28;1.60;;;18.10;94.30;;;;;;5094200;28;20028;-69
2022/07/08 09:18:35;;;;;;;4.13;1.40;;;18.20;94.00;;;;;;5093376;28;20036;-69
2022/07/08 09:21:03;;;;;;;1.88;1.73;;;18.10;93.40;;;;;;5093546;28;20472;-69
2022/07/08 09:23:35;;;;;;;2.53;1.60;;;18.20;94.10;;;;;;5093307;28;20372;-70
2022/07/08 09:26:03;;;;;;;3.05;1.70;;;18.10;93.70;;;;;;5093848;28;20028;-69
2022/07/08 09:28:40;;;;;;;2.90;2.05;;;18.10;93.40;;;;;;5092848;28;20052;-68
2022/07/08 09:31:12;;;;;;;4.63;1.77;;;18.10;93.10;;;;;;5093248;28;20032;-68
2022/07/08 09:33:38;;;;;;;3.03;2.20;;;18.10;92.70;;;;;;5092852;28;20022;-69
2022/07/08 09:36:06;;;;;;;1.70;1.60;;;18.00;92.50;;;;;;5081776;28;20107;-70
2022/07/08 09:38:35;;;;;;;2.45;1.83;;;18.00;92.30;;;;;;5089791;28;20028;-69
2022/07/08 09:41:02;;;;;;;5.15;2.20;;;17.90;92.50;;;;;;5092191;28;20463;-69
2022/07/08 09:43:28;;;;;;;2.15;1.40;;;17.80;92.80;;;;;;5092723;28;20028;-68
2022/07/08 09:46:02;;;;;;;2.25;1.77;;;17.80;92.80;;;;;;5093396;28;20054;-69
2022/07/08 09:48:29;;;;;;;6.28;2.00;;;17.80;93.10;;;;;;5092676;28;20032;-69
2022/07/08 09:50:55;;;;;;;4.20;2.00;;;17.70;93.20;;;;;;5093061;28;20036;-68
2022/07/08 09:53:27;;;;;;;2.22;2.00;;;17.70;93.30;;;;;;5092386;28;20105;-67
2022/07/08 09:55:55;;;;;;;6.70;2.55;;;17.60;93.50;;;;;;5093233;28;20020;-68
2022/07/08 09:58:23;;;;;;;4.65;1.77;;;17.60;93.70;;;;;;5092130;28;20107;-68
2022/07/08 10:00:52;;;;;;;2.30;2.10;;;17.50;93.80;;;;;;5093060;28;20031;-69
2022/07/08 10:03:19;;;;;;;3.13;2.10;;;17.50;94.20;;;;;;5092410;28;20066;-68
2022/07/08 10:05:45;;;;;;;3.30;1.90;;;17.50;93.80;;;;;;5093197;28;20480;-69
2022/07/08 10:08:11;;;;;;;3.10;1.80;;;17.50;93.80;;;;;;5092520;28;20028;-68
2022/07/08 10:10:39;;;;;;;3.55;1.67;;;17.50;93.90;;;;;;5092520;28;20047;-69
2022/07/08 10:13:05;;;;;;;1.67;1.58;;;17.50;93.30;;;;;;5092926;28;20468;-70
2022/07/08 10:15:35;;;;;;;1.95;1.75;;;17.50;93.70;;;;;;5092447;28;20168;-69
2022/07/08 10:18:24;;;;;;;2.97;1.87;;;17.50;93.30;;;;;;5092199;28;20495;-69
2022/07/08 10:20:56;;;;;;;2.08;1.63;;;17.50;93.30;;;;;;5093064;28;20057;-68
2022/07/08 10:23:31;;;;;;;2.78;2.15;;;17.50;93.20;;;;;;5092604;28;20032;-69
2022/07/08 10:25:59;;;;;;;3.55;1.83;;;17.40;93.10;;;;;;5092247;28;20039;-69
2022/07/08 10:28:38;;;;;;;3.90;1.90;;;17.40;93.60;;;;;;5091798;28;20052;-68
2022/07/08 10:31:21;;;;;;;8.02;1.95;;;17.30;93.40;;;;;;5092762;28;20113;-69
2022/07/08 10:33:48;;;;;;;6.53;2.03;;;17.40;93.60;;;;;;5072525;28;20028;-69
2022/07/08 10:36:18;;;;;;;3.10;1.77;;;17.40;93.40;;;;;;5072290;28;20025;-68
2022/07/08 10:38:44;;;;;;;2.87;1.87;;;17.40;93.50;;;;;;5072713;28;20028;-69
2022/07/08 10:41:11;;;;;;;4.03;1.77;;;17.40;92.90;;;;;;5072736;28;20131;-69
2022/07/08 10:44:01;;;;;;;7.00;2.83;;;17.50;92.60;;;;;;5072883;28;20032;-68
2022/07/08 10:46:28;;;;;;;4.05;1.92;;;17.60;92.10;;;;;;5075847;28;20032;-69
2022/07/08 10:48:58;;;;;;;2.53;2.00;;;17.60;92.10;;;;;;5076213;28;20495;-69
2022/07/08 10:51:24;;;;;;;2.65;1.80;;;17.70;91.80;;;;;;5076252;28;20105;-70
2022/07/08 10:54:05;;;;;;;2.83;1.80;;;17.70;91.70;;;;;;5076291;28;20048;-69
2022/07/08 10:56:54;;;;;;;4.18;2.20;;;17.90;91.60;;;;;;5076014;28;20040;-68
2022/07/08 10:59:25;;;;;;;5.80;2.05;;;18.00;91.10;;;;;;5076008;28;20087;-68
2022/07/08 11:02:04;;;;;;;5.03;2.10;;;18.10;90.60;;;;;;5076514;28;20303;-68
2022/07/08 11:04:35;;;;;;;3.90;2.13;;;18.10;90.20;;;;;;5075849;28;20109;-69
2022/07/08 11:07:20;;;;;;;3.08;1.85;;;18.10;90.00;;;;;;5076180;28;20040;-69
2022/07/08 11:09:50;;;;;;;2.65;1.77;;;18.10;90.60;;;;;;5076223;28;20123;-68
2022/07/08 11:12:20;;;;;;;2.22;1.95;;;18.20;90.70;;;;;;5075732;28;20111;-68
2022/07/08 11:14:47;;;;;;;2.20;1.90;;;18.20;90.50;;;;;;5076142;28;20028;-69
2022/07/08 11:17:14;;;;;;;4.00;2.20;;;18.10;90.30;;;;;;5076036;28;20032;-70
2022/07/08 11:19:41;;;;;;;2.47;1.63;;;18.10;90.50;;;;;;5076028;28;20025;-69
2022/07/08 11:22:09;;;;;;;2.00;1.70;;;18.10;90.50;;;;;;5075928;28;20029;-69
2022/07/08 11:24:40;;;;;;;4.82;2.17;;;18.20;90.50;;;;;;5075872;28;20029;-68
2022/07/08 11:27:06;;;;;;;;;;;18.30;89.10;;;;;;5076101;28;20036;-68
2022/07/08 11:29:33;;;;;;;10.18;2.78;;;18.30;89.10;;;;;;5075627;28;19916;-68
2022/07/08 11:32:01;;;;;;;2.47;2.00;;;18.30;88.60;;;;;;5075625;28;20148;-69
2022/07/08 11:34:28;;;;;;;3.88;2.03;;;18.30;88.70;;;;;;5075784;28;20117;-68
2022/07/08 11:37:02;;;;;;;1.77;1.65;;;18.40;88.70;;;;;;5075840;28;20222;-69
2022/07/08 11:39:28;;;;;;;2.15;1.52;;;18.40;89.80;;;;;;5075203;28;20445;-68
2022/07/08 11:41:54;;;;;;;2.22;1.88;;;18.50;90.20;;;;;;5075642;28;20483;-69
2022/07/08 11:44:26;;;;;;;1.63;1.52;;;18.70;88.40;;;;;;5075483;28;20086;-68
2022/07/08 11:46:53;;;;;;;2.47;1.52;;;18.80;88.90;;;;;;5075690;28;20051;-69
2022/07/08 11:49:20;;;;;;;7.50;2.47;;;18.80;87.30;;;;;;5075008;28;20037;-67
2022/07/08 11:51:50;;;;;;;1.90;1.63;;;18.70;85.70;;;;;;5075572;28;20476;-68
2022/07/08 11:54:19;;;;;;;3.42;1.88;;;18.80;87.30;;;;;;5075429;28;20028;-68
2022/07/08 11:56:45;;;;;;;4.60;1.80;;;18.90;87.10;;;;;;5074612;28;20028;-69
2022/07/08 11:59:11;;;;;;;1.75;1.65;;;19.00;87.40;;;;;;5075672;28;20468;-68
2022/07/08 12:01:38;;;;;;;1.85;1.25;;;19.00;84.80;;;;;;5074998;28;20484;-70
2022/07/08 12:04:05;;;;;;;2.20;1.33;;;19.00;84.40;;;;;;5075190;28;20103;-69
2022/07/08 12:06:32;;;;;;;5.32;1.52;;;19.00;84.20;;;;;;5074451;28;20495;-69
2022/07/08 12:08:58;;;;;;;1.60;1.17;;;19.00;84.00;;;;;;5084394;28;20036;-69
2022/07/08 12:11:27;;;;;;;1.98;1.15;;;18.90;83.70;;;;;;5095187;28;20039;-68
2022/07/08 12:13:53;;;;;;;1.27;1.10;;;18.90;83.50;;;;;;5095497;28;20050;-69
2022/07/08 12:16:32;;;;;;;2.13;1.15;;;18.80;83.90;;;;;;5095301;28;20540;-68
2022/07/08 12:18:59;;;;;;;1.92;1.10;;;18.70;84.40;;;;;;5095432;28;20380;-69
2022/07/08 12:21:25;;;;;;;1.48;1.00;;;18.60;85.20;;;;;;5094847;28;20077;-69
2022/07/08 12:23:59;;;;;;;1.40;1.30;;;18.60;86.10;;;;;;5095192;28;20028;-69
2022/07/08 12:26:25;;;;;;;1.95;1.00;;;18.50;85.90;;;;;;5094777;28;20087;-68
2022/07/08 12:28:51;;;;;;;1.65;1.30;;;18.50;86.20;;;;;;5094546;28;20117;-68
2022/07/08 12:31:42;;;;;;;1.42;1.00;;;18.50;86.50;;;;;;5094971;28;20469;-69
2022/07/08 12:34:09;;;;;;;1.77;1.48;;;18.50;86.60;;;;;;5095145;28;20028;-69
2022/07/08 12:36:35;;;;;;;1.13;1.02;;;18.40;87.10;;;;;;5094552;28;20373;-68
2022/07/08 12:39:18;;;;;;;3.88;1.65;;;18.40;88.10;;;;;;5094595;28;20032;-68
2022/07/08 12:41:57;;;;;;;1.75;1.40;;;18.40;87.90;;;;;;5094543;28;20052;-69
2022/07/08 12:44:32;;;;;;;2.67;1.42;;;18.30;87.10;;;;;;5094353;28;20028;-67
2022/07/08 12:46:58;;;;;;;1.30;1.20;;;18.40;87.40;;;;;;5094478;28;20435;-69